sensor_id;sensor_type;location;lat;lon;timestamp;temperature;humidity
21481;DHT22;10902;48.158;8.634;2023-01-08T00:01:06;3.50;99.90
21481;DHT22;10902;48.158;8.634;2023-01-08T00:03:32;3.40;99.90
21481;DHT22;10902;48.158;8.634;2023-01-08T00:06:02;3.30;99.90
21481;DHT22;10902;48.158;8.634;2023-01-08T00:08:29;3.20;99.90
21481;DHT22;10902;48.158;8.634;2023-01-08T00:10:55;3.20;99.90
21481;DHT22;10902;48.158;8.634;2023-01-08T00:13:20;3.20;99.90
21481;DHT22;10902;48.158;8.634;2023-01-08T00:15:46;3.00;99.90
21481;DHT22;10902;48.158;8.634;2023-01-08T00:18:12;3.20;99.90
21481;DHT22;10902;48.158;8.634;2023-01-08T00:20:43;3.20;99.90
21481;DHT22;10902;48.158;8.634;2023-01-08T00:23:16;3.10;99.90
21481;DHT22;10902;48.158;8.634;2023-01-08T00:25:42;3.20;99.90
21481;DHT22;10902;48.158;8.634;2023-01-08T00:28:08;3.30;99.90
21481;DHT22;10902;48.158;8.634;2023-01-08T00:30:34;3.20;99.90
21481;DHT22;10902;48.158;8.634;2023-01-08T00:33:00;3.10;99.90
21481;DHT22;10902;48.158;8.634;2023-01-08T00:35:26;3.10;99.90
21481;DHT22;10902;48.158;8.634;2023-01-08T00:37:51;3.20;99.90
21481;DHT22;10902;48.158;8.634;2023-01-08T00:40:17;3.30;99.90
21481;DHT22;10902;48.158;8.634;2023-01-08T00:42:42;3.40;99.90
21481;DHT22;10902;48.158;8.634;2023-01-08T00:45:08;3.60;99.90
21481;DHT22;10902;48.158;8.634;2023-01-08T00:47:34;3.60;99.90
21481;DHT22;10902;48.158;8.634;2023-01-08T00:49:59;3.60;99.90
21481;DHT22;10902;48.158;8.634;2023-01-08T00:52:25;3.50;99.90
21481;DHT22;10902;48.158;8.634;2023-01-08T00:54:51;3.50;99.90
21481;DHT22;10902;48.158;8.634;2023-01-08T00:57:16;3.30;99.90
21481;DHT22;10902;48.158;8.634;2023-01-08T00:59:42;3.10;99.90
21481;DHT22;10902;48.158;8.634;2023-01-08T01:02:08;3.00;99.90
21481;DHT22;10902;48.158;8.634;2023-01-08T01:04:34;3.10;99.90
21481;DHT22;10902;48.158;8.634;2023-01-08T01:07:00;3.00;99.90
21481;DHT22;10902;48.158;8.634;2023-01-08T01:09:25;2.90;99.90
21481;DHT22;10902;48.158;8.634;2023-01-08T01:11:51;2.90;99.90
21481;DHT22;10902;48.158;8.634;2023-01-08T01:14:16;2.90;99.90
21481;DHT22;10902;48.158;8.634;2023-01-08T01:16:42;3.00;99.90
21481;DHT22;10902;48.158;8.634;2023-01-08T01:19:08;3.10;99.90
21481;DHT22;10902;48.158;8.634;2023-01-08T01:21:34;3.30;99.90
21481;DHT22;10902;48.158;8.634;2023-01-08T01:24:02;3.20;99.90
21481;DHT22;10902;48.158;8.634;2023-01-08T01:26:28;3.20;99.90
21481;DHT22;10902;48.158;8.634;2023-01-08T01:28:55;3.20;99.90
21481;DHT22;10902;48.158;8.634;2023-01-08T01:31:21;3.30;99.90
21481;DHT22;10902;48.158;8.634;2023-01-08T01:33:47;3.30;99.90
21481;DHT22;10902;48.158;8.634;2023-01-08T01:36:13;3.30;99.90
21481;DHT22;10902;48.158;8.634;2023-01-08T01:38:46;3.30;99.90
21481;DHT22;10902;48.158;8.634;2023-01-08T01:41:30;3.30;99.90
21481;DHT22;10902;48.158;8.634;2023-01-08T01:43:58;3.30;99.90
21481;DHT22;10902;48.158;8.634;2023-01-08T01:46:39;3.20;99.90
21481;DHT22;10902;48.158;8.634;2023-01-08T01:49:11;3.20;99.90
21481;DHT22;10902;48.158;8.634;2023-01-08T01:51:41;3.20;99.90
21481;DHT22;10902;48.158;8.634;2023-01-08T01:54:10;3.10;99.90
21481;DHT22;10902;48.158;8.634;2023-01-08T01:56:37;3.20;99.90
21481;DHT22;10902;48.158;8.634;2023-01-08T01:59:03;3.10;99.90
21481;DHT22;10902;48.158;8.634;2023-01-08T02:01:30;3.10;99.90
21481;DHT22;10902;48.158;8.634;2023-01-08T02:03:56;3.00;99.90
21481;DHT22;10902;48.158;8.634;2023-01-08T02:09:16;3.10;99.90
21481;DHT22;10902;48.158;8.634;2023-01-08T02:11:49;3.00;99.90
21481;DHT22;10902;48.158;8.634;2023-01-08T02:17:14;3.10;99.90
21481;DHT22;10902;48.158;8.634;2023-01-08T02:19:48;3.20;99.90
21481;DHT22;10902;48.158;8.634;2023-01-08T02:22:59;3.10;99.90
21481;DHT22;10902;48.158;8.634;2023-01-08T02:28:07;3.40;99.90
21481;DHT22;10902;48.158;8.634;2023-01-08T02:30:34;3.40;99.90
21481;DHT22;10902;48.158;8.634;2023-01-08T02:32:59;3.30;99.90
21481;DHT22;10902;48.158;8.634;2023-01-08T02:35:37;3.20;99.90
21481;DHT22;10902;48.158;8.634;2023-01-08T02:38:04;3.20;99.90
21481;DHT22;10902;48.158;8.634;2023-01-08T02:40:37;3.20;99.90
21481;DHT22;10902;48.158;8.634;2023-01-08T02:43:13;3.30;99.90
21481;DHT22;10902;48.158;8.634;2023-01-08T02:45:55;3.30;99.90
21481;DHT22;10902;48.158;8.634;2023-01-08T02:51:16;3.50;99.90
21481;DHT22;10902;48.158;8.634;2023-01-08T02:53:46;3.70;99.90
21481;DHT22;10902;48.158;8.634;2023-01-08T02:56:20;3.70;99.90
21481;DHT22;10902;48.158;8.634;2023-01-08T02:58:48;3.80;99.90
21481;DHT22;10902;48.158;8.634;2023-01-08T03:01:16;3.80;99.90
21481;DHT22;10902;48.158;8.634;2023-01-08T03:03:46;3.90;99.90
21481;DHT22;10902;48.158;8.634;2023-01-08T03:06:15;3.90;99.90
21481;DHT22;10902;48.158;8.634;2023-01-08T03:08:45;3.90;99.90
21481;DHT22;10902;48.158;8.634;2023-01-08T03:11:14;4.00;99.90
21481;DHT22;10902;48.158;8.634;2023-01-08T03:14:06;3.90;99.90
21481;DHT22;10902;48.158;8.634;2023-01-08T03:16:43;3.80;99.90
21481;DHT22;10902;48.158;8.634;2023-01-08T03:19:18;3.70;99.90
21481;DHT22;10902;48.158;8.634;2023-01-08T03:21:45;3.60;99.90
21481;DHT22;10902;48.158;8.634;2023-01-08T03:24:14;3.60;99.90
21481;DHT22;10902;48.158;8.634;2023-01-08T03:26:43;3.80;99.90
21481;DHT22;10902;48.158;8.634;2023-01-08T03:29:13;3.80;99.90
21481;DHT22;10902;48.158;8.634;2023-01-08T03:31:40;3.90;99.90
21481;DHT22;10902;48.158;8.634;2023-01-08T03:34:07;3.90;99.90
21481;DHT22;10902;48.158;8.634;2023-01-08T03:36:35;3.90;99.90
21481;DHT22;10902;48.158;8.634;2023-01-08T03:39:09;3.90;99.90
21481;DHT22;10902;48.158;8.634;2023-01-08T03:41:36;3.90;99.90
21481;DHT22;10902;48.158;8.634;2023-01-08T03:44:02;3.90;99.90
21481;DHT22;10902;48.158;8.634;2023-01-08T03:46:31;3.90;99.90
21481;DHT22;10902;48.158;8.634;2023-01-08T03:48:58;3.90;99.90
21481;DHT22;10902;48.158;8.634;2023-01-08T03:51:25;3.90;99.90
21481;DHT22;10902;48.158;8.634;2023-01-08T03:53:53;4.00;99.90
21481;DHT22;10902;48.158;8.634;2023-01-08T03:56:21;4.00;99.90
21481;DHT22;10902;48.158;8.634;2023-01-08T03:58:46;4.10;99.90
21481;DHT22;10902;48.158;8.634;2023-01-08T04:01:12;4.20;99.90
21481;DHT22;10902;48.158;8.634;2023-01-08T04:03:38;4.20;99.90
21481;DHT22;10902;48.158;8.634;2023-01-08T04:06:03;4.30;99.90
21481;DHT22;10902;48.158;8.634;2023-01-08T04:08:29;4.30;99.90
21481;DHT22;10902;48.158;8.634;2023-01-08T04:10:54;4.30;99.90
21481;DHT22;10902;48.158;8.634;2023-01-08T04:13:20;4.40;99.90
21481;DHT22;10902;48.158;8.634;2023-01-08T04:15:50;4.50;99.90
21481;DHT22;10902;48.158;8.634;2023-01-08T04:18:16;4.50;99.90
21481;DHT22;10902;48.158;8.634;2023-01-08T04:20:46;4.50;99.90
21481;DHT22;10902;48.158;8.634;2023-01-08T04:23:12;4.50;99.90
21481;DHT22;10902;48.158;8.634;2023-01-08T04:25:37;4.50;99.90
21481;DHT22;10902;48.158;8.634;2023-01-08T04:28:03;4.50;99.90
21481;DHT22;10902;48.158;8.634;2023-01-08T04:30:29;4.50;99.90
21481;DHT22;10902;48.158;8.634;2023-01-08T04:32:54;4.40;99.90
21481;DHT22;10902;48.158;8.634;2023-01-08T04:35:20;4.30;99.90
21481;DHT22;10902;48.158;8.634;2023-01-08T04:37:45;4.10;99.90
21481;DHT22;10902;48.158;8.634;2023-01-08T04:40:11;4.00;99.90
21481;DHT22;10902;48.158;8.634;2023-01-08T04:42:37;4.00;99.90
21481;DHT22;10902;48.158;8.634;2023-01-08T04:45:02;4.00;99.90
21481;DHT22;10902;48.158;8.634;2023-01-08T04:47:28;4.00;99.90
21481;DHT22;10902;48.158;8.634;2023-01-08T04:49:54;3.90;99.90
21481;DHT22;10902;48.158;8.634;2023-01-08T04:52:19;3.80;99.90
21481;DHT22;10902;48.158;8.634;2023-01-08T04:54:45;3.80;99.90
21481;DHT22;10902;48.158;8.634;2023-01-08T04:57:10;3.60;99.90
21481;DHT22;10902;48.158;8.634;2023-01-08T04:59:36;3.50;99.90
21481;DHT22;10902;48.158;8.634;2023-01-08T05:02:01;3.60;99.90
21481;DHT22;10902;48.158;8.634;2023-01-08T05:04:27;3.60;99.90
21481;DHT22;10902;48.158;8.634;2023-01-08T05:06:53;3.80;99.90
21481;DHT22;10902;48.158;8.634;2023-01-08T05:09:18;3.80;99.90
21481;DHT22;10902;48.158;8.634;2023-01-08T05:11:44;3.70;99.90
21481;DHT22;10902;48.158;8.634;2023-01-08T05:14:10;3.60;99.90
21481;DHT22;10902;48.158;8.634;2023-01-08T05:16:36;3.70;99.90
21481;DHT22;10902;48.158;8.634;2023-01-08T05:19:01;3.70;99.90
21481;DHT22;10902;48.158;8.634;2023-01-08T05:21:27;3.70;99.90
21481;DHT22;10902;48.158;8.634;2023-01-08T05:23:53;3.70;99.90
21481;DHT22;10902;48.158;8.634;2023-01-08T05:26:18;3.80;99.90
21481;DHT22;10902;48.158;8.634;2023-01-08T05:28:44;3.90;99.90
21481;DHT22;10902;48.158;8.634;2023-01-08T05:31:09;4.00;99.90
21481;DHT22;10902;48.158;8.634;2023-01-08T05:33:36;4.10;99.90
21481;DHT22;10902;48.158;8.634;2023-01-08T05:36:07;4.00;99.90
21481;DHT22;10902;48.158;8.634;2023-01-08T05:38:33;4.30;99.90
21481;DHT22;10902;48.158;8.634;2023-01-08T05:40:59;4.40;99.90
21481;DHT22;10902;48.158;8.634;2023-01-08T05:43:25;4.10;99.90
21481;DHT22;10902;48.158;8.634;2023-01-08T05:45:51;3.90;99.90
21481;DHT22;10902;48.158;8.634;2023-01-08T05:48:16;4.00;99.90
21481;DHT22;10902;48.158;8.634;2023-01-08T05:50:42;4.20;99.90
21481;DHT22;10902;48.158;8.634;2023-01-08T05:53:08;4.20;99.90
21481;DHT22;10902;48.158;8.634;2023-01-08T05:55:34;4.20;99.90
21481;DHT22;10902;48.158;8.634;2023-01-08T05:58:01;4.50;99.90
21481;DHT22;10902;48.158;8.634;2023-01-08T06:00:27;4.60;99.90
21481;DHT22;10902;48.158;8.634;2023-01-08T06:02:53;4.50;99.90
21481;DHT22;10902;48.158;8.634;2023-01-08T06:05:19;4.40;99.90
21481;DHT22;10902;48.158;8.634;2023-01-08T06:07:44;4.30;99.90
21481;DHT22;10902;48.158;8.634;2023-01-08T06:10:10;4.40;99.90
21481;DHT22;10902;48.158;8.634;2023-01-08T06:12:36;4.40;99.90
21481;DHT22;10902;48.158;8.634;2023-01-08T06:15:02;4.40;99.90
21481;DHT22;10902;48.158;8.634;2023-01-08T06:17:28;4.50;99.90
21481;DHT22;10902;48.158;8.634;2023-01-08T06:19:53;4.60;99.90
21481;DHT22;10902;48.158;8.634;2023-01-08T06:22:19;4.70;99.90
21481;DHT22;10902;48.158;8.634;2023-01-08T06:24:44;4.80;99.90
21481;DHT22;10902;48.158;8.634;2023-01-08T06:27:10;5.00;99.90
21481;DHT22;10902;48.158;8.634;2023-01-08T06:29:35;5.20;99.90
21481;DHT22;10902;48.158;8.634;2023-01-08T06:32:01;5.20;99.90
21481;DHT22;10902;48.158;8.634;2023-01-08T06:34:27;5.20;99.90
21481;DHT22;10902;48.158;8.634;2023-01-08T06:36:52;5.30;99.90
21481;DHT22;10902;48.158;8.634;2023-01-08T06:39:18;5.40;99.90
21481;DHT22;10902;48.158;8.634;2023-01-08T06:41:43;5.50;99.90
21481;DHT22;10902;48.158;8.634;2023-01-08T06:44:09;5.60;99.90
21481;DHT22;10902;48.158;8.634;2023-01-08T06:46:35;5.50;99.90
21481;DHT22;10902;48.158;8.634;2023-01-08T06:49:08;5.60;99.90
21481;DHT22;10902;48.158;8.634;2023-01-08T06:51:34;5.50;99.90
21481;DHT22;10902;48.158;8.634;2023-01-08T06:54:00;5.50;99.90
21481;DHT22;10902;48.158;8.634;2023-01-08T06:56:25;5.50;99.90
21481;DHT22;10902;48.158;8.634;2023-01-08T06:58:51;5.50;99.90
21481;DHT22;10902;48.158;8.634;2023-01-08T07:01:16;5.50;99.90
21481;DHT22;10902;48.158;8.634;2023-01-08T07:03:42;5.50;99.90
21481;DHT22;10902;48.158;8.634;2023-01-08T07:06:15;5.50;99.90
21481;DHT22;10902;48.158;8.634;2023-01-08T07:08:42;5.50;99.90
21481;DHT22;10902;48.158;8.634;2023-01-08T07:11:07;5.40;99.90
21481;DHT22;10902;48.158;8.634;2023-01-08T07:13:33;5.30;99.90
21481;DHT22;10902;48.158;8.634;2023-01-08T07:16:04;5.30;99.90
21481;DHT22;10902;48.158;8.634;2023-01-08T07:18:30;5.30;99.90
21481;DHT22;10902;48.158;8.634;2023-01-08T07:20:56;5.20;99.90
21481;DHT22;10902;48.158;8.634;2023-01-08T07:23:21;5.10;99.90
21481;DHT22;10902;48.158;8.634;2023-01-08T07:25:47;5.10;99.90
21481;DHT22;10902;48.158;8.634;2023-01-08T07:28:13;5.10;99.90
21481;DHT22;10902;48.158;8.634;2023-01-08T07:30:38;5.10;99.90
21481;DHT22;10902;48.158;8.634;2023-01-08T07:33:04;5.10;99.90
21481;DHT22;10902;48.158;8.634;2023-01-08T07:35:29;5.10;99.90
21481;DHT22;10902;48.158;8.634;2023-01-08T07:37:55;5.00;99.90
21481;DHT22;10902;48.158;8.634;2023-01-08T07:40:21;5.00;99.90
21481;DHT22;10902;48.158;8.634;2023-01-08T07:42:47;5.00;99.90
21481;DHT22;10902;48.158;8.634;2023-01-08T07:45:13;5.00;99.90
21481;DHT22;10902;48.158;8.634;2023-01-08T07:47:38;5.00;99.90
21481;DHT22;10902;48.158;8.634;2023-01-08T07:50:05;4.90;99.90
21481;DHT22;10902;48.158;8.634;2023-01-08T07:52:30;4.90;99.90
21481;DHT22;10902;48.158;8.634;2023-01-08T07:54:56;4.90;99.90
21481;DHT22;10902;48.158;8.634;2023-01-08T07:57:21;4.90;99.90
21481;DHT22;10902;48.158;8.634;2023-01-08T07:59:47;4.80;99.90
21481;DHT22;10902;48.158;8.634;2023-01-08T08:02:12;4.80;99.90
21481;DHT22;10902;48.158;8.634;2023-01-08T08:04:38;4.80;99.90
21481;DHT22;10902;48.158;8.634;2023-01-08T08:07:03;4.80;99.90
21481;DHT22;10902;48.158;8.634;2023-01-08T08:09:29;4.90;99.90
21481;DHT22;10902;48.158;8.634;2023-01-08T08:11:55;4.90;99.90
21481;DHT22;10902;48.158;8.634;2023-01-08T08:14:20;4.90;99.90
21481;DHT22;10902;48.158;8.634;2023-01-08T08:16:46;4.90;99.90
21481;DHT22;10902;48.158;8.634;2023-01-08T08:19:11;4.90;99.90
21481;DHT22;10902;48.158;8.634;2023-01-08T08:21:37;4.90;99.90
21481;DHT22;10902;48.158;8.634;2023-01-08T08:24:03;4.90;99.90
21481;DHT22;10902;48.158;8.634;2023-01-08T08:26:29;4.90;99.90
21481;DHT22;10902;48.158;8.634;2023-01-08T08:28:55;4.90;99.90
21481;DHT22;10902;48.158;8.634;2023-01-08T08:31:20;5.00;99.90
21481;DHT22;10902;48.158;8.634;2023-01-08T08:33:46;5.00;99.90
21481;DHT22;10902;48.158;8.634;2023-01-08T08:36:12;5.00;99.90
21481;DHT22;10902;48.158;8.634;2023-01-08T08:38:38;5.00;99.90
21481;DHT22;10902;48.158;8.634;2023-01-08T08:41:04;5.00;99.90
21481;DHT22;10902;48.158;8.634;2023-01-08T08:43:30;5.00;99.90
21481;DHT22;10902;48.158;8.634;2023-01-08T08:45:55;5.10;99.90
21481;DHT22;10902;48.158;8.634;2023-01-08T08:48:22;5.10;99.90
21481;DHT22;10902;48.158;8.634;2023-01-08T08:50:48;5.20;99.90
21481;DHT22;10902;48.158;8.634;2023-01-08T08:53:13;5.20;99.90
21481;DHT22;10902;48.158;8.634;2023-01-08T08:55:39;5.20;99.90
21481;DHT22;10902;48.158;8.634;2023-01-08T08:58:07;5.20;99.90
21481;DHT22;10902;48.158;8.634;2023-01-08T09:00:39;5.30;99.90
21481;DHT22;10902;48.158;8.634;2023-01-08T09:03:05;5.30;99.90
21481;DHT22;10902;48.158;8.634;2023-01-08T09:05:34;5.30;99.90
21481;DHT22;10902;48.158;8.634;2023-01-08T09:08:00;5.30;99.90
21481;DHT22;10902;48.158;8.634;2023-01-08T09:10:25;5.30;99.90
21481;DHT22;10902;48.158;8.634;2023-01-08T09:12:52;5.30;99.90
21481;DHT22;10902;48.158;8.634;2023-01-08T09:15:17;5.30;99.90
21481;DHT22;10902;48.158;8.634;2023-01-08T09:17:43;5.40;99.90
21481;DHT22;10902;48.158;8.634;2023-01-08T09:20:09;5.40;99.90
21481;DHT22;10902;48.158;8.634;2023-01-08T09:22:34;5.40;99.90
21481;DHT22;10902;48.158;8.634;2023-01-08T09:25:00;5.40;99.90
21481;DHT22;10902;48.158;8.634;2023-01-08T09:27:25;5.50;99.90
21481;DHT22;10902;48.158;8.634;2023-01-08T09:29:51;5.40;99.90
21481;DHT22;10902;48.158;8.634;2023-01-08T09:32:16;5.50;99.90
21481;DHT22;10902;48.158;8.634;2023-01-08T09:34:42;5.50;99.90
21481;DHT22;10902;48.158;8.634;2023-01-08T09:37:08;5.50;99.90
21481;DHT22;10902;48.158;8.634;2023-01-08T09:39:35;5.50;99.90
21481;DHT22;10902;48.158;8.634;2023-01-08T09:42:03;5.60;99.90
21481;DHT22;10902;48.158;8.634;2023-01-08T09:44:35;5.50;99.90
21481;DHT22;10902;48.158;8.634;2023-01-08T09:47:01;5.50;99.90
21481;DHT22;10902;48.158;8.634;2023-01-08T09:49:41;5.60;99.90
21481;DHT22;10902;48.158;8.634;2023-01-08T09:52:11;5.60;99.90
21481;DHT22;10902;48.158;8.634;2023-01-08T09:54:39;5.60;99.90
21481;DHT22;10902;48.158;8.634;2023-01-08T09:57:05;5.60;99.90
21481;DHT22;10902;48.158;8.634;2023-01-08T09:59:31;5.60;99.90
21481;DHT22;10902;48.158;8.634;2023-01-08T10:01:57;5.60;99.90
21481;DHT22;10902;48.158;8.634;2023-01-08T10:04:24;5.60;99.90
21481;DHT22;10902;48.158;8.634;2023-01-08T10:06:55;5.60;99.90
21481;DHT22;10902;48.158;8.634;2023-01-08T10:09:30;5.70;99.90
21481;DHT22;10902;48.158;8.634;2023-01-08T10:12:01;5.70;99.90
21481;DHT22;10902;48.158;8.634;2023-01-08T10:14:30;5.70;99.90
21481;DHT22;10902;48.158;8.634;2023-01-08T10:17:04;5.60;99.90
21481;DHT22;10902;48.158;8.634;2023-01-08T10:19:32;5.70;99.90
21481;DHT22;10902;48.158;8.634;2023-01-08T10:21:57;5.70;99.90
21481;DHT22;10902;48.158;8.634;2023-01-08T10:24:35;5.70;99.90
21481;DHT22;10902;48.158;8.634;2023-01-08T10:27:13;5.70;99.90
21481;DHT22;10902;48.158;8.634;2023-01-08T10:29:40;5.70;99.90
21481;DHT22;10902;48.158;8.634;2023-01-08T10:32:17;5.60;99.90
21481;DHT22;10902;48.158;8.634;2023-01-08T10:34:46;5.60;99.90
21481;DHT22;10902;48.158;8.634;2023-01-08T10:37:26;5.60;99.90
21481;DHT22;10902;48.158;8.634;2023-01-08T10:39:55;5.60;99.90
21481;DHT22;10902;48.158;8.634;2023-01-08T10:42:23;5.60;99.90
21481;DHT22;10902;48.158;8.634;2023-01-08T10:44:58;5.60;99.90
21481;DHT22;10902;48.158;8.634;2023-01-08T10:47:27;5.60;99.90
21481;DHT22;10902;48.158;8.634;2023-01-08T10:49:54;5.60;99.90
21481;DHT22;10902;48.158;8.634;2023-01-08T10:59:34;5.60;99.90
21481;DHT22;10902;48.158;8.634;2023-01-08T11:02:51;5.60;99.90
21481;DHT22;10902;48.158;8.634;2023-01-08T11:05:40;5.70;99.90
21481;DHT22;10902;48.158;8.634;2023-01-08T11:08:16;5.80;99.90
21481;DHT22;10902;48.158;8.634;2023-01-08T11:10:54;5.80;99.90
21481;DHT22;10902;48.158;8.634;2023-01-08T11:13:21;5.80;99.90
21481;DHT22;10902;48.158;8.634;2023-01-08T11:16:05;5.80;99.90
21481;DHT22;10902;48.158;8.634;2023-01-08T11:18:46;5.90;99.90
21481;DHT22;10902;48.158;8.634;2023-01-08T11:21:37;5.90;99.90
21481;DHT22;10902;48.158;8.634;2023-01-08T11:24:33;6.00;99.90
21481;DHT22;10902;48.158;8.634;2023-01-08T11:27:41;6.10;99.90
21481;DHT22;10902;48.158;8.634;2023-01-08T11:37:39;6.20;99.90
21481;DHT22;10902;48.158;8.634;2023-01-08T11:46:41;6.30;99.90
21481;DHT22;10902;48.158;8.634;2023-01-08T11:52:06;6.30;99.90
21481;DHT22;10902;48.158;8.634;2023-01-08T11:57:54;6.40;99.90
21481;DHT22;10902;48.158;8.634;2023-01-08T12:04:16;6.50;99.90
21481;DHT22;10902;48.158;8.634;2023-01-08T12:06:52;6.50;99.90
21481;DHT22;10902;48.158;8.634;2023-01-08T12:09:45;6.50;99.90
21481;DHT22;10902;48.158;8.634;2023-01-08T12:15:14;6.60;99.90
21481;DHT22;10902;48.158;8.634;2023-01-08T12:17:59;6.60;99.90
21481;DHT22;10902;48.158;8.634;2023-01-08T12:25:52;6.50;99.90
21481;DHT22;10902;48.158;8.634;2023-01-08T12:34:37;6.40;99.90
21481;DHT22;10902;48.158;8.634;2023-01-08T12:42:52;6.30;99.90
21481;DHT22;10902;48.158;8.634;2023-01-08T12:45:26;6.30;99.90
21481;DHT22;10902;48.158;8.634;2023-01-08T12:48:17;6.30;99.90
21481;DHT22;10902;48.158;8.634;2023-01-08T12:59:41;6.50;99.90
21481;DHT22;10902;48.158;8.634;2023-01-08T13:02:22;6.70;99.90
21481;DHT22;10902;48.158;8.634;2023-01-08T13:04:51;6.70;99.90
21481;DHT22;10902;48.158;8.634;2023-01-08T13:07:27;6.80;99.90
21481;DHT22;10902;48.158;8.634;2023-01-08T13:10:07;6.80;99.90
21481;DHT22;10902;48.158;8.634;2023-01-08T13:12:35;6.70;99.90
21481;DHT22;10902;48.158;8.634;2023-01-08T13:15:03;6.70;99.90
21481;DHT22;10902;48.158;8.634;2023-01-08T13:17:30;6.70;99.90
21481;DHT22;10902;48.158;8.634;2023-01-08T13:20:05;6.70;99.90
21481;DHT22;10902;48.158;8.634;2023-01-08T13:22:33;6.70;99.90
21481;DHT22;10902;48.158;8.634;2023-01-08T13:27:42;6.70;99.90
21481;DHT22;10902;48.158;8.634;2023-01-08T13:32:58;6.90;99.90
21481;DHT22;10902;48.158;8.634;2023-01-08T13:35:28;6.80;99.90
21481;DHT22;10902;48.158;8.634;2023-01-08T13:38:14;6.70;99.90
21481;DHT22;10902;48.158;8.634;2023-01-08T13:43:30;6.80;99.90
21481;DHT22;10902;48.158;8.634;2023-01-08T13:48:27;6.80;99.90
21481;DHT22;10902;48.158;8.634;2023-01-08T13:50:54;6.70;99.90
21481;DHT22;10902;48.158;8.634;2023-01-08T13:53:20;6.80;99.90
21481;DHT22;10902;48.158;8.634;2023-01-08T13:58:23;6.60;99.90
21481;DHT22;10902;48.158;8.634;2023-01-08T14:00:52;6.60;99.90
21481;DHT22;10902;48.158;8.634;2023-01-08T14:06:12;6.50;99.90
21481;DHT22;10902;48.158;8.634;2023-01-08T14:11:42;6.50;99.90
21481;DHT22;10902;48.158;8.634;2023-01-08T14:14:19;6.50;99.90
21481;DHT22;10902;48.158;8.634;2023-01-08T14:16:47;6.50;99.90
21481;DHT22;10902;48.158;8.634;2023-01-08T14:19:21;6.50;99.90
21481;DHT22;10902;48.158;8.634;2023-01-08T14:21:56;6.50;99.90
21481;DHT22;10902;48.158;8.634;2023-01-08T14:24:23;6.40;99.90
21481;DHT22;10902;48.158;8.634;2023-01-08T14:26:51;6.50;99.90
21481;DHT22;10902;48.158;8.634;2023-01-08T14:29:24;6.40;99.90
21481;DHT22;10902;48.158;8.634;2023-01-08T14:31:55;6.40;99.90
21481;DHT22;10902;48.158;8.634;2023-01-08T14:34:24;6.40;99.90
21481;DHT22;10902;48.158;8.634;2023-01-08T14:36:51;6.40;99.90
21481;DHT22;10902;48.158;8.634;2023-01-08T14:39:33;6.50;99.90
21481;DHT22;10902;48.158;8.634;2023-01-08T14:45:11;6.50;99.90
21481;DHT22;10902;48.158;8.634;2023-01-08T14:47:43;6.60;99.90
21481;DHT22;10902;48.158;8.634;2023-01-08T14:50:30;6.80;99.90
21481;DHT22;10902;48.158;8.634;2023-01-08T14:53:09;6.80;99.90
21481;DHT22;10902;48.158;8.634;2023-01-08T14:55:44;6.80;99.90
21481;DHT22;10902;48.158;8.634;2023-01-08T14:58:25;6.70;99.90
21481;DHT22;10902;48.158;8.634;2023-01-08T15:00:55;6.60;99.90
21481;DHT22;10902;48.158;8.634;2023-01-08T15:03:28;6.60;99.90
21481;DHT22;10902;48.158;8.634;2023-01-08T15:05:55;6.60;99.90
21481;DHT22;10902;48.158;8.634;2023-01-08T15:08:24;6.50;99.90
21481;DHT22;10902;48.158;8.634;2023-01-08T15:11:01;6.50;99.90
21481;DHT22;10902;48.158;8.634;2023-01-08T15:13:34;6.50;99.90
21481;DHT22;10902;48.158;8.634;2023-01-08T15:19:12;6.40;99.90
21481;DHT22;10902;48.158;8.634;2023-01-08T15:21:45;6.40;99.90
21481;DHT22;10902;48.158;8.634;2023-01-08T15:24:33;6.40;99.90
21481;DHT22;10902;48.158;8.634;2023-01-08T15:27:00;6.30;99.90
21481;DHT22;10902;48.158;8.634;2023-01-08T15:29:37;6.30;99.90
21481;DHT22;10902;48.158;8.634;2023-01-08T15:34:38;6.20;99.90
21481;DHT22;10902;48.158;8.634;2023-01-08T15:37:03;6.30;99.90
21481;DHT22;10902;48.158;8.634;2023-01-08T15:39:29;6.20;99.90
21481;DHT22;10902;48.158;8.634;2023-01-08T15:41:55;6.30;99.90
21481;DHT22;10902;48.158;8.634;2023-01-08T15:44:39;6.20;99.90
21481;DHT22;10902;48.158;8.634;2023-01-08T15:47:04;6.20;99.90
21481;DHT22;10902;48.158;8.634;2023-01-08T15:49:30;6.20;99.90
21481;DHT22;10902;48.158;8.634;2023-01-08T15:51:56;6.20;99.90
21481;DHT22;10902;48.158;8.634;2023-01-08T15:54:23;6.20;99.90
21481;DHT22;10902;48.158;8.634;2023-01-08T15:56:49;6.10;99.90
21481;DHT22;10902;48.158;8.634;2023-01-08T15:59:15;6.10;99.90
21481;DHT22;10902;48.158;8.634;2023-01-08T16:01:40;6.10;99.90
21481;DHT22;10902;48.158;8.634;2023-01-08T16:04:06;6.10;99.90
21481;DHT22;10902;48.158;8.634;2023-01-08T16:06:32;6.00;99.90
21481;DHT22;10902;48.158;8.634;2023-01-08T16:08:59;6.10;99.90
21481;DHT22;10902;48.158;8.634;2023-01-08T16:11:25;6.10;99.90
21481;DHT22;10902;48.158;8.634;2023-01-08T16:13:51;6.10;99.90
21481;DHT22;10902;48.158;8.634;2023-01-08T16:16:16;6.10;99.90
21481;DHT22;10902;48.158;8.634;2023-01-08T16:18:42;6.10;99.90
21481;DHT22;10902;48.158;8.634;2023-01-08T16:21:09;6.00;99.90
21481;DHT22;10902;48.158;8.634;2023-01-08T16:23:36;6.00;99.90
21481;DHT22;10902;48.158;8.634;2023-01-08T16:26:10;6.00;99.90
21481;DHT22;10902;48.158;8.634;2023-01-08T16:28:36;5.90;99.90
21481;DHT22;10902;48.158;8.634;2023-01-08T16:31:02;5.90;99.90
21481;DHT22;10902;48.158;8.634;2023-01-08T16:33:28;5.80;99.90
21481;DHT22;10902;48.158;8.634;2023-01-08T16:35:57;5.80;99.90
21481;DHT22;10902;48.158;8.634;2023-01-08T16:38:23;5.70;99.90
21481;DHT22;10902;48.158;8.634;2023-01-08T16:40:52;5.70;99.90
21481;DHT22;10902;48.158;8.634;2023-01-08T16:43:18;5.70;99.90
21481;DHT22;10902;48.158;8.634;2023-01-08T16:45:45;5.60;99.90
21481;DHT22;10902;48.158;8.634;2023-01-08T16:48:11;5.60;99.90
21481;DHT22;10902;48.158;8.634;2023-01-08T16:50:38;5.60;99.90
21481;DHT22;10902;48.158;8.634;2023-01-08T16:53:04;5.60;99.90
21481;DHT22;10902;48.158;8.634;2023-01-08T16:55:29;5.60;99.90
21481;DHT22;10902;48.158;8.634;2023-01-08T16:57:55;5.50;99.90
21481;DHT22;10902;48.158;8.634;2023-01-08T17:00:20;5.50;99.90
21481;DHT22;10902;48.158;8.634;2023-01-08T17:02:46;5.50;99.90
21481;DHT22;10902;48.158;8.634;2023-01-08T17:05:11;5.50;99.90
21481;DHT22;10902;48.158;8.634;2023-01-08T17:07:37;5.40;99.90
21481;DHT22;10902;48.158;8.634;2023-01-08T17:10:03;5.40;99.90
21481;DHT22;10902;48.158;8.634;2023-01-08T17:12:29;5.40;99.90
21481;DHT22;10902;48.158;8.634;2023-01-08T17:14:55;5.40;99.90
21481;DHT22;10902;48.158;8.634;2023-01-08T17:17:20;5.40;99.90
21481;DHT22;10902;48.158;8.634;2023-01-08T17:19:46;5.40;99.90
21481;DHT22;10902;48.158;8.634;2023-01-08T17:22:12;5.50;99.90
21481;DHT22;10902;48.158;8.634;2023-01-08T17:24:37;5.50;99.90
21481;DHT22;10902;48.158;8.634;2023-01-08T17:27:03;5.40;99.90
21481;DHT22;10902;48.158;8.634;2023-01-08T17:29:29;5.40;99.90
21481;DHT22;10902;48.158;8.634;2023-01-08T17:31:54;5.40;99.90
21481;DHT22;10902;48.158;8.634;2023-01-08T17:34:20;5.40;99.90